Time;durP1;ratioP1;P1;durP2;ratioP2;P2;SDS_P1;SDS_P2;PMS_P1;PMS_P2;Temp;Humidity;BMP_temperature;BMP_pressure;BME280_temperature;BME280_humidity;BME280_pressure;Samples;Min_cycle;Max_cycle;Signal;HPM_P1;HPM_P2
2021/03/24 00:04:27;;;;;;;;;;;3.60;99.90;;;;;;13158977;22;19985;-91
2021/03/24 00:09:28;;;;;;;;;;;3.40;99.90;;;;;;13133050;22;19925;-91
2021/03/24 00:14:29;;;;;;;;;;;3.40;99.90;;;;;;13132394;22;20299;-91
2021/03/24 00:19:30;;;;;;;;;;;3.60;99.90;;;;;;13132526;22;19993;-91
2021/03/24 00:24:39;;;;;;;;;;;3.50;99.90;;;;;;13184858;22;19925;-91
2021/03/24 00:29:40;;;;;;;;;;;4.30;99.90;;;;;;13132467;22;19918;-91
2021/03/24 00:34:43;;;;;;;;;;;3.40;99.90;;;;;;13158579;22;19918;-91
2021/03/24 00:39:44;;;;;;;;;;;6.30;99.90;;;;;;13158149;22;19925;-92
2021/03/24 00:44:45;;;;;;;;;;;3.40;99.90;;;;;;13133022;22;19918;-91
2021/03/24 00:49:47;;;;;;;;;;;6.10;99.90;;;;;;13131529;22;20001;-91
2021/03/24 00:55:04;;;;;;;;;;;5.70;99.90;;;;;;13140088;22;19918;-91
2021/03/24 01:00:10;;;;;;;;;;;3.40;99.90;;;;;;13158683;22;19986;-91
2021/03/24 01:05:13;;;;;;;;;;;3.40;99.90;;;;;;13158082;22;19925;-92
2021/03/24 01:10:18;;;;;;;;;;;3.30;99.90;;;;;;13157285;22;20001;-91
2021/03/24 01:15:19;;;;;;;;;;;4.80;99.90;;;;;;13185453;22;19918;-92
2021/03/24 01:20:22;;;;;;;;;;;3.40;99.90;;;;;;13158198;22;19940;-92
2021/03/24 01:25:27;;;;;;;;;;;6.30;99.90;;;;;;13158958;22;20384;-92
2021/03/24 01:30:30;;;;;;;;;;;3.30;99.90;;;;;;13130773;22;19925;-91
2021/03/24 01:35:31;;;;;;;;;;;3.50;99.90;;;;;;13157695;22;19967;-92
2021/03/24 01:40:35;;;;;;;;;;;3.20;99.90;;;;;;13156853;22;20369;-91
2021/03/24 01:45:36;;;;;;;;;;;3.30;99.90;;;;;;13156542;22;20005;-92
2021/03/24 01:50:38;;;;;;;;;;;3.10;99.90;;;;;;13156000;22;20000;-92
2021/03/24 01:55:49;;;;;;;;;;;3.90;99.90;;;;;;13159749;22;19918;-92
2021/03/24 02:00:51;;;;;;;;;;;3.00;99.90;;;;;;13130571;22;19989;-92
2021/03/24 02:05:53;;;;;;;;;;;5.40;99.90;;;;;;13156513;22;20379;-91
2021/03/24 02:10:55;;;;;;;;;;;3.00;99.90;;;;;;13130865;22;20004;-91
2021/03/24 02:15:58;;;;;;;;;;;4.30;99.90;;;;;;13156385;22;19949;-91
2021/03/24 02:21:02;;;;;;;;;;;5.50;99.90;;;;;;13156972;22;19967;-92
2021/03/24 02:26:32;;;;;;;;;;;2.80;99.90;;;;;;13158902;22;20347;-92
2021/03/24 02:31:34;;;;;;;;;;;2.70;99.90;;;;;;13156449;22;20330;-92
2021/03/24 02:36:38;;;;;;;;;;;2.80;99.90;;;;;;13156246;22;20253;-92
2021/03/24 02:41:40;;;;;;;;;;;2.90;99.90;;;;;;13155937;22;19918;-92
2021/03/24 02:46:42;;;;;;;;;;;2.90;99.90;;;;;;13157236;22;19989;-91
2021/03/24 02:51:45;;;;;;;;;;;3.70;99.90;;;;;;13116820;22;20005;-91
2021/03/24 02:56:46;;;;;;;;;;;2.90;99.90;;;;;;13091120;22;19961;-91
2021/03/24 03:01:52;;;;;;;;;;;2.90;99.90;;;;;;13122945;22;19918;-91
2021/03/24 03:06:55;;;;;;;;;;;2.90;99.90;;;;;;13121413;22;20296;-91
2021/03/24 03:12:11;;;;;;;;;;;3.00;99.90;;;;;;13121212;22;19950;-91
2021/03/24 03:17:18;;;;;;;;;;;3.00;99.90;;;;;;13122127;22;19918;-92
2021/03/24 03:22:22;;;;;;;;;;;3.00;99.90;;;;;;13120327;22;19918;-92
2021/03/24 03:27:24;;;;;;;;;;;3.20;99.90;;;;;;13120814;22;19989;-92
2021/03/24 03:32:27;;;;;;;;;;;3.00;99.90;;;;;;13120871;22;20001;-92
2021/03/24 03:37:29;;;;;;;;;;;3.10;99.90;;;;;;13121130;22;19923;-93
2021/03/24 03:42:30;;;;;;;;;;;2.80;99.90;;;;;;13093616;22;20343;-92
2021/03/24 03:47:32;;;;;;;;;;;2.80;99.90;;;;;;13094627;22;19950;-92
2021/03/24 03:52:39;;;;;;;;;;;3.30;99.90;;;;;;13119783;22;20278;-93
2021/03/24 03:57:46;;;;;;;;;;;2.80;99.90;;;;;;13120605;22;19929;-93
2021/03/24 04:02:52;;;;;;;;;;;2.90;99.90;;;;;;13120703;22;19989;-94
2021/03/24 04:07:56;;;;;;;;;;;3.70;99.90;;;;;;13120171;22;19922;-91
2021/03/24 04:12:59;;;;;;;;;;;2.80;99.90;;;;;;13116815;22;20315;-91
2021/03/24 04:18:06;;;;;;;;;;;5.10;99.90;;;;;;13117745;22;19943;-91
2021/03/24 04:23:12;;;;;;;;;;;2.80;99.90;;;;;;13117406;22;19926;-91
2021/03/24 04:28:16;;;;;;;;;;;2.70;99.90;;;;;;13118385;22;19929;-91
2021/03/24 04:33:17;;;;;;;;;;;2.90;99.90;;;;;;13118559;22;19918;-91
2021/03/24 04:38:30;;;;;;;;;;;4.00;99.90;;;;;;13117998;22;19981;-91
2021/03/24 04:43:33;;;;;;;;;;;3.00;99.90;;;;;;13117819;22;19981;-90
2021/03/24 04:48:37;;;;;;;;;;;3.10;99.90;;;;;;13125354;22;20250;-90
2021/03/24 04:53:41;;;;;;;;;;;3.20;99.90;;;;;;13158285;22;20273;-91
2021/03/24 04:58:44;;;;;;;;;;;3.00;99.90;;;;;;13157275;22;19987;-90
2021/03/24 05:03:46;;;;;;;;;;;3.00;99.90;;;;;;13156384;22;19985;-90
2021/03/24 05:08:48;;;;;;;;;;;2.90;99.90;;;;;;13156828;22;20285;-90
2021/03/24 05:13:56;;;;;;;;;;;3.30;99.90;;;;;;13156623;22;19958;-90
2021/03/24 05:18:58;;;;;;;;;;;3.00;99.90;;;;;;13156384;22;20052;-90
2021/03/24 05:24:01;;;;;;;;;;;3.00;99.90;;;;;;13155654;22;19941;-91
2021/03/24 05:29:05;;;;;;;;;;;3.20;99.90;;;;;;13155669;22;19986;-90
2021/03/24 05:34:10;;;;;;;;;;;3.20;99.90;;;;;;13155531;22;19918;-90
2021/03/24 05:39:23;;;;;;;;;;;4.20;99.90;;;;;;13183070;22;19997;-90
2021/03/24 05:44:45;;;;;;;;;;;3.00;99.90;;;;;;13154453;22;20402;-90
2021/03/24 05:49:46;;;;;;;;;;;3.40;99.90;;;;;;13077331;22;19953;-90
2021/03/24 05:54:47;;;;;;;;;;;2.80;99.90;;;;;;13154502;22;20387;-91
2021/03/24 05:59:56;;;;;;;;;;;2.70;99.90;;;;;;13154591;22;20355;-90
2021/03/24 06:05:02;;;;;;;;;;;2.80;99.90;;;;;;13154917;22;19989;-90
2021/03/24 06:10:14;;;;;;;;;;;3.60;99.90;;;;;;13155167;22;19953;-90
2021/03/24 06:15:34;;;;;;;;;;;3.00;99.90;;;;;;13154044;22;19922;-90
2021/03/24 06:20:54;;;;;;;;;;;3.30;99.90;;;;;;13181539;22;20238;-91
2021/03/24 06:26:14;;;;;;;;;;;3.40;99.90;;;;;;13181382;22;20001;-90
2021/03/24 06:31:15;;;;;;;;;;;3.90;99.90;;;;;;13153523;22;20246;-90
2021/03/24 06:36:32;;;;;;;;;;;4.50;99.90;;;;;;13157989;22;19992;-90
2021/03/24 06:41:36;;;;;;;;;;;4.80;99.90;;;;;;13158326;22;19940;-91
2021/03/24 06:46:40;;;;;;;;;;;5.30;99.90;;;;;;13159656;22;19919;-90
2021/03/24 06:51:42;;;;;;;;;;;5.90;99.90;;;;;;13157959;22;19924;-90
2021/03/24 06:56:46;;;;;;;;;;;6.50;99.90;;;;;;13158215;22;19934;-91
2021/03/24 07:02:06;;;;;;;;;;;6.90;99.90;;;;;;13158219;22;19929;-91
2021/03/24 07:07:10;;;;;;;;;;;7.40;99.90;;;;;;13158430;22;19991;-91
2021/03/24 07:12:35;;;;;;;;;;;8.20;99.90;;;;;;13158751;22;20001;-91
2021/03/24 07:17:40;;;;;;;;;;;8.30;99.90;;;;;;13139049;22;19919;-91
2021/03/24 07:23:00;;;;;;;;;;;8.60;99.90;;;;;;13186881;22;19963;-91
2021/03/24 07:28:11;;;;;;;;;;;9.30;99.90;;;;;;13161486;22;19925;-92
2021/03/24 07:33:22;;;;;;;;;;;9.60;99.90;;;;;;13161109;22;19953;-93
2021/03/24 07:38:50;;;;;;;;;;;10.50;99.90;;;;;;13159787;22;19923;-93
2021/03/24 07:44:12;;;;;;;;;;;10.60;99.90;;;;;;13106297;22;19918;-93
2021/03/24 07:49:25;;;;;;;;;;;10.50;99.90;;;;;;13159809;22;20005;-93
2021/03/24 07:54:36;;;;;;;;;;;11.00;99.90;;;;;;13159981;22;19953;-93
2021/03/24 07:59:43;;;;;;;;;;;11.10;99.90;;;;;;13159817;22;19934;-93
2021/03/24 08:04:45;;;;;;;;;;;11.70;99.90;;;;;;13160224;22;19980;-93
2021/03/24 08:10:04;;;;;;;;;;;11.80;99.90;;;;;;13187001;22;19918;-93
2021/03/24 08:15:15;;;;;;;;;;;12.40;99.90;;;;;;13159511;22;19985;-93
2021/03/24 08:20:34;;;;;;;;;;;12.50;99.90;;;;;;13159437;22;19949;-93
2021/03/24 08:25:46;;;;;;;;;;;12.20;99.90;;;;;;13159134;22;20357;-93
2021/03/24 08:30:58;;;;;;;;;;;12.90;99.90;;;;;;13160917;22;19922;-93
2021/03/24 08:36:05;;;;;;;;;;;13.10;99.90;;;;;;13159685;22;19964;-93
2021/03/24 08:41:25;;;;;;;;;;;13.80;99.50;;;;;;13159598;22;19925;-93
2021/03/24 08:46:29;;;;;;;;;;;14.60;96.20;;;;;;13159553;22;19957;-93
2021/03/24 08:51:40;;;;;;;;;;;14.50;95.20;;;;;;13155942;22;20353;-87
2021/03/24 08:56:58;;;;;;;;;;;13.90;94.80;;;;;;13156631;22;19918;-88
2021/03/24 09:02:15;;;;;;;;;;;13.50;96.60;;;;;;13156575;22;20318;-87
2021/03/24 09:07:31;;;;;;;;;;;14.60;93.70;;;;;;13184758;22;19987;-87
2021/03/24 09:12:37;;;;;;;;;;;15.10;96.20;;;;;;13157085;22;19919;-86
2021/03/24 09:17:47;;;;;;;;;;;14.60;93.40;;;;;;13156917;22;19945;-86
2021/03/24 09:23:01;;;;;;;;;;;16.50;88.30;;;;;;13183190;22;19922;-87
2021/03/24 09:28:08;;;;;;;;;;;15.30;86.80;;;;;;13182181;22;20032;-87
2021/03/24 09:33:28;;;;;;;;;;;16.30;86.00;;;;;;13182096;22;19918;-87
2021/03/24 09:38:34;;;;;;;;;;;16.40;88.70;;;;;;13183355;22;19919;-87
2021/03/24 09:43:37;;;;;;;;;;;16.10;89.00;;;;;;13154184;22;19918;-87
2021/03/24 09:48:52;;;;;;;;;;;16.70;80.30;;;;;;13153209;22;19946;-87
2021/03/24 09:54:04;;;;;;;;;;;16.20;83.80;;;;;;13153182;22;20296;-87
2021/03/24 09:59:12;;;;;;;;;;;16.70;83.30;;;;;;13181557;22;19993;-87
2021/03/24 10:04:16;;;;;;;;;;;16.60;80.90;;;;;;13182676;22;19985;-87
2021/03/24 10:09:24;;;;;;;;;;;16.60;79.90;;;;;;13153693;22;19918;-87
2021/03/24 10:14:28;;;;;;;;;;;16.50;81.30;;;;;;13180137;22;19950;-87
2021/03/24 10:19:34;;;;;;;;;;;17.30;78.50;;;;;;13180893;22;20324;-87
2021/03/24 10:24:46;;;;;;;;;;;17.90;78.90;;;;;;13180623;22;20297;-87
2021/03/24 10:29:51;;;;;;;;;;;18.00;71.40;;;;;;13180687;22;19930;-87
2021/03/24 10:34:59;;;;;;;;;;;17.90;77.50;;;;;;13180135;22;20291;-87
2021/03/24 10:40:11;;;;;;;;;;;18.00;69.80;;;;;;13179911;22;19965;-88
2021/03/24 10:45:22;;;;;;;;;;;18.20;66.80;;;;;;13179953;22;20357;-87
2021/03/24 10:50:38;;;;;;;;;;;18.30;69.90;;;;;;13179488;22;19918;-87
2021/03/24 10:55:41;;;;;;;;;;;17.70;68.70;;;;;;13181056;22;19918;-88
2021/03/24 11:00:51;;;;;;;;;;;17.80;68.50;;;;;;13180183;22;19994;-87
2021/03/24 11:05:54;;;;;;;;;;;17.60;68.30;;;;;;13153363;22;19942;-87
2021/03/24 11:11:05;;;;;;;;;;;17.90;69.20;;;;;;13152733;22;19922;-91
2021/03/24 11:16:29;;;;;;;;;;;17.00;68.20;;;;;;13176668;22;19926;-88
2021/03/24 11:21:37;;;;;;;;;;;16.20;70.30;;;;;;13148619;22;19922;-88
2021/03/24 11:26:39;;;;;;;;;;;17.30;71.60;;;;;;13177028;22;19997;-88
2021/03/24 11:31:55;;;;;;;;;;;17.30;70.90;;;;;;13148610;22;20621;-87
2021/03/24 11:37:04;;;;;;;;;;;18.00;67.00;;;;;;13148943;22;19964;-88
2021/03/24 11:42:10;;;;;;;;;;;18.40;65.70;;;;;;13149251;22;19981;-87
2021/03/24 11:47:17;;;;;;;;;;;17.80;68.20;;;;;;13148471;22;19922;-87
2021/03/24 11:52:30;;;;;;;;;;;17.60;68.20;;;;;;13148244;22;19958;-87
2021/03/24 11:57:50;;;;;;;;;;;17.30;68.70;;;;;;13149210;22;19926;-88
2021/03/24 12:03:10;;;;;;;;;;;17.10;68.70;;;;;;13175544;22;20326;-89
2021/03/24 12:08:30;;;;;;;;;;;16.90;68.00;;;;;;13176765;22;19951;-89
2021/03/24 12:13:33;;;;;;;;;;;17.00;67.50;;;;;;13175130;22;19928;-89
2021/03/24 12:18:54;;;;;;;;;;;16.50;65.80;;;;;;13175627;22;20327;-88
2021/03/24 12:23:57;;;;;;;;;;;16.60;67.20;;;;;;13175455;22;20319;-89
2021/03/24 12:29:07;;;;;;;;;;;17.30;64.80;;;;;;13180085;22;19989;-89
2021/03/24 12:34:12;;;;;;;;;;;16.80;70.20;;;;;;13150192;22;20299;-89
2021/03/24 12:39:25;;;;;;;;;;;17.40;66.30;;;;;;13151597;22;19925;-89
2021/03/24 12:44:34;;;;;;;;;;;17.60;65.50;;;;;;13177735;22;19997;-89
2021/03/24 12:49:39;;;;;;;;;;;16.60;62.20;;;;;;13150669;22;20408;-89
2021/03/24 12:54:40;;;;;;;;;;;17.30;65.70;;;;;;13178680;22;19997;-90
2021/03/24 12:59:49;;;;;;;;;;;17.60;63.70;;;;;;13154101;22;20032;-90
2021/03/24 13:04:58;;;;;;;;;;;17.90;65.90;;;;;;13177257;22;19918;-89
2021/03/24 13:10:14;;;;;;;;;;;17.50;62.60;;;;;;13150769;22;19929;-88
2021/03/24 13:15:21;;;;;;;;;;;17.50;63.20;;;;;;13150118;22;19922;-89
2021/03/24 13:20:45;;;;;;;;;;;17.90;66.50;;;;;;13149009;22;19965;-93
2021/03/24 13:25:51;;;;;;;;;;;17.40;61.70;;;;;;13147497;22;19990;-89
2021/03/24 13:31:12;;;;;;;;;;;18.00;59.50;;;;;;13147183;22;19918;-89
2021/03/24 13:36:18;;;;;;;;;;;17.60;59.10;;;;;;13178837;22;20343;-89
2021/03/24 13:41:20;;;;;;;;;;;17.40;58.30;;;;;;13179321;22;20036;-88
2021/03/24 13:46:29;;;;;;;;;;;17.40;61.70;;;;;;13176201;22;19922;-88
2021/03/24 13:51:33;;;;;;;;;;;17.40;62.40;;;;;;13147442;22;19922;-89
2021/03/24 13:56:43;;;;;;;;;;;18.00;61.40;;;;;;13148909;22;20002;-88
2021/03/24 14:01:50;;;;;;;;;;;17.50;61.50;;;;;;13174540;22;19918;-88
2021/03/24 14:06:59;;;;;;;;;;;17.90;58.30;;;;;;13176847;22;19964;-87
2021/03/24 14:12:01;;;;;;;;;;;17.30;59.90;;;;;;13153697;22;19925;-87
2021/03/24 14:17:08;;;;;;;;;;;17.10;63.90;;;;;;13179859;22;20654;-87
2021/03/24 14:22:09;;;;;;;;;;;16.90;64.10;;;;;;13179430;22;19919;-87
2021/03/24 14:27:19;;;;;;;;;;;16.60;65.00;;;;;;13181158;22;19922;-88
2021/03/24 14:32:22;;;;;;;;;;;16.40;61.50;;;;;;13154034;22;20001;-87
2021/03/24 14:37:24;;;;;;;;;;;17.00;62.90;;;;;;13180124;22;19922;-88
2021/03/24 14:42:37;;;;;;;;;;;16.90;62.80;;;;;;13181023;22;20493;-88
2021/03/24 14:47:48;;;;;;;;;;;17.30;58.70;;;;;;13180958;22;19919;-87
2021/03/24 14:52:49;;;;;;;;;;;17.20;61.40;;;;;;13151241;22;20495;-88
2021/03/24 14:57:51;;;;;;;;;;;16.90;60.10;;;;;;13159297;22;19922;-87
2021/03/24 15:03:12;;;;;;;;;;;17.20;61.30;;;;;;13209752;22;19922;-87
2021/03/24 15:08:20;;;;;;;;;;;16.80;60.20;;;;;;13183975;22;19918;-87
2021/03/24 15:13:32;;;;;;;;;;;16.70;60.50;;;;;;13186599;22;19950;-87
2021/03/24 15:18:50;;;;;;;;;;;16.40;61.00;;;;;;13185633;22;19985;-87
2021/03/24 15:24:02;;;;;;;;;;;16.30;60.10;;;;;;13185925;22;19922;-87
2021/03/24 15:29:22;;;;;;;;;;;16.30;60.90;;;;;;13158001;22;19941;-87
2021/03/24 15:34:42;;;;;;;;;;;16.10;61.80;;;;;;13184691;22;19923;-87
2021/03/24 15:39:52;;;;;;;;;;;16.00;61.80;;;;;;13157362;22;19925;-87
2021/03/24 15:45:10;;;;;;;;;;;15.70;61.90;;;;;;13185720;22;19918;-87
2021/03/24 15:50:15;;;;;;;;;;;15.60;62.30;;;;;;13152302;22;20251;-87
2021/03/24 15:55:23;;;;;;;;;;;15.60;64.60;;;;;;13183024;22;19933;-87
2021/03/24 16:00:33;;;;;;;;;;;15.60;64.50;;;;;;13183031;22;20394;-87
2021/03/24 16:05:41;;;;;;;;;;;15.70;64.80;;;;;;13155471;22;19958;-88
2021/03/24 16:10:52;;;;;;;;;;;15.60;64.50;;;;;;13154876;22;19928;-87
2021/03/24 16:16:11;;;;;;;;;;;15.60;64.60;;;;;;13154715;22;19937;-87
2021/03/24 16:21:18;;;;;;;;;;;15.60;67.00;;;;;;13156578;22;19985;-87
2021/03/24 16:26:50;;;;;;;;;;;15.60;63.30;;;;;;13183797;22;19906;-88
2021/03/24 16:32:22;;;;;;;;;;;15.30;71.50;;;;;;13183198;22;20001;-87
2021/03/24 16:37:27;;;;;;;;;;;14.70;82.00;;;;;;13026969;22;19925;-87
2021/03/24 16:42:28;;;;;;;;;;;14.30;88.40;;;;;;13184076;22;19918;-87
2021/03/24 16:47:35;;;;;;;;;;;14.10;90.60;;;;;;13156625;22;19942;-87
2021/03/24 16:52:50;;;;;;;;;;;14.00;91.50;;;;;;13156118;22;19918;-87
2021/03/24 16:57:51;;;;;;;;;;;13.70;92.80;;;;;;13184910;22;19919;-87
2021/03/24 17:03:02;;;;;;;;;;;13.60;93.50;;;;;;13184813;22;19942;-86
2021/03/24 17:08:12;;;;;;;;;;;13.40;94.60;;;;;;13156016;22;20340;-87
2021/03/24 17:13:13;;;;;;;;;;;13.20;95.30;;;;;;13183441;22;20380;-87
2021/03/24 17:18:34;;;;;;;;;;;13.40;96.70;;;;;;13184269;22;19972;-86
2021/03/24 17:23:46;;;;;;;;;;;12.90;97.00;;;;;;13155537;22;20200;-87
2021/03/24 17:28:48;;;;;;;;;;;12.90;97.80;;;;;;13161893;22;19949;-85
2021/03/24 17:33:49;;;;;;;;;;;12.70;97.40;;;;;;13199242;22;19919;-87
2021/03/24 17:38:53;;;;;;;;;;;12.50;98.30;;;;;;13159334;22;19918;-86
2021/03/24 17:43:58;;;;;;;;;;;12.40;99.00;;;;;;13154934;22;20363;-86
2021/03/24 17:49:17;;;;;;;;;;;12.20;98.80;;;;;;13182560;22;19919;-82
2021/03/24 17:54:35;;;;;;;;;;;12.00;99.40;;;;;;13153821;22;19918;-83
2021/03/24 18:00:00;;;;;;;;;;;11.80;99.90;;;;;;13154576;22;19926;-85
2021/03/24 18:05:06;;;;;;;;;;;11.50;99.90;;;;;;13082171;22;19993;-86
2021/03/24 18:10:12;;;;;;;;;;;11.30;99.90;;;;;;13180163;22;19975;-86
2021/03/24 18:15:20;;;;;;;;;;;11.20;99.90;;;;;;13153304;22;19950;-86
2021/03/24 18:20:22;;;;;;;;;;;10.90;99.90;;;;;;13153393;22;19941;-85
2021/03/24 18:25:29;;;;;;;;;;;10.60;99.90;;;;;;13152588;22;19919;-85
2021/03/24 18:30:30;;;;;;;;;;;10.60;99.90;;;;;;13151840;22;19993;-86
2021/03/24 18:35:36;;;;;;;;;;;10.30;99.90;;;;;;13152959;22;19981;-86
2021/03/24 18:40:38;;;;;;;;;;;10.00;99.90;;;;;;13180555;22;20224;-86
2021/03/24 18:45:40;;;;;;;;;;;10.00;99.90;;;;;;13152902;22;19997;-85
2021/03/24 18:50:43;;;;;;;;;;;9.80;99.90;;;;;;13152626;22;19926;-85
2021/03/24 18:56:03;;;;;;;;;;;10.30;99.90;;;;;;13152797;22;19989;-85
2021/03/24 19:01:18;;;;;;;;;;;11.00;99.90;;;;;;13152523;22;19918;-85
2021/03/24 19:06:22;;;;;;;;;;;9.40;99.90;;;;;;13152499;22;19929;-86
2021/03/24 19:11:41;;;;;;;;;;;9.30;99.90;;;;;;13156258;22;20376;-85
2021/03/24 19:16:42;;;;;;;;;;;9.20;99.90;;;;;;13151729;22;19924;-85
2021/03/24 19:21:45;;;;;;;;;;;9.30;99.90;;;;;;13151609;22;20335;-85
2021/03/24 19:26:53;;;;;;;;;;;8.80;99.90;;;;;;13180015;22;19918;-86
2021/03/24 19:31:54;;;;;;;;;;;8.70;99.90;;;;;;13179969;22;20004;-85
2021/03/24 19:37:00;;;;;;;;;;;8.70;99.90;;;;;;13125958;22;19967;-85
2021/03/24 19:42:15;;;;;;;;;;;8.40;99.90;;;;;;13181300;22;19987;-85
2021/03/24 19:47:25;;;;;;;;;;;8.50;99.90;;;;;;13156460;22;19989;-85
2021/03/24 19:52:26;;;;;;;;;;;8.60;99.90;;;;;;13156478;22;19925;-85
2021/03/24 19:57:27;;;;;;;;;;;9.00;99.90;;;;;;13183429;22;19922;-85
2021/03/24 20:02:35;;;;;;;;;;;8.90;99.90;;;;;;13155593;22;19954;-85
2021/03/24 20:07:42;;;;;;;;;;;8.90;99.90;;;;;;13182302;22;19918;-85
2021/03/24 20:12:53;;;;;;;;;;;8.70;99.90;;;;;;13154773;22;19953;-85
2021/03/24 20:17:54;;;;;;;;;;;8.50;99.90;;;;;;13154477;22;20301;-85
2021/03/24 20:22:57;;;;;;;;;;;8.30;99.90;;;;;;13129029;22;20350;-85
2021/03/24 20:27:58;;;;;;;;;;;8.30;99.90;;;;;;13154040;22;19922;-85
2021/03/24 20:33:13;;;;;;;;;;;8.10;99.90;;;;;;13182650;22;20022;-85
2021/03/24 20:38:21;;;;;;;;;;;8.00;99.90;;;;;;13155214;22;19985;-85
2021/03/24 20:43:22;;;;;;;;;;;7.80;99.90;;;;;;13155139;22;19922;-85
2021/03/24 20:48:24;;;;;;;;;;;8.10;99.90;;;;;;13154870;22;19986;-85
2021/03/24 20:53:26;;;;;;;;;;;7.70;99.90;;;;;;13127734;22;19976;-85
2021/03/24 20:58:31;;;;;;;;;;;7.80;99.90;;;;;;13153809;22;19946;-85
2021/03/24 21:03:36;;;;;;;;;;;7.40;99.90;;;;;;13153086;22;19946;-85
2021/03/24 21:08:38;;;;;;;;;;;7.30;99.90;;;;;;13182803;22;19923;-85
2021/03/24 21:13:39;;;;;;;;;;;7.90;99.90;;;;;;13181792;22;19922;-85
2021/03/24 21:18:41;;;;;;;;;;;7.20;99.90;;;;;;13153257;22;19993;-85
2021/03/24 21:23:42;;;;;;;;;;;6.90;99.90;;;;;;13180860;22;19985;-85
2021/03/24 21:28:44;;;;;;;;;;;7.50;99.90;;;;;;13154147;22;19993;-84
2021/03/24 21:33:45;;;;;;;;;;;6.80;99.90;;;;;;13180835;22;19949;-85
2021/03/24 21:38:48;;;;;;;;;;;6.70;99.90;;;;;;13127840;22;19924;-85
2021/03/24 21:43:51;;;;;;;;;;;6.70;99.90;;;;;;13152981;22;20330;-85
2021/03/24 21:48:52;;;;;;;;;;;6.70;99.90;;;;;;13126943;22;19918;-85
2021/03/24 21:53:55;;;;;;;;;;;6.80;99.90;;;;;;13152960;22;19918;-85
2021/03/24 21:59:19;;;;;;;;;;;6.60;99.90;;;;;;13153557;22;19985;-85
2021/03/24 22:04:23;;;;;;;;;;;6.60;99.90;;;;;;13132530;22;19918;-85
2021/03/24 22:09:24;;;;;;;;;;;6.60;99.90;;;;;;13152666;22;20402;-85
2021/03/24 22:14:28;;;;;;;;;;;6.60;99.90;;;;;;13180979;22;19997;-85
2021/03/24 22:19:30;;;;;;;;;;;6.60;99.90;;;;;;13181120;22;19942;-85
2021/03/24 22:24:31;;;;;;;;;;;6.50;99.90;;;;;;13152383;22;20306;-85
2021/03/24 22:29:38;;;;;;;;;;;6.60;99.90;;;;;;13125916;22;20357;-85
2021/03/24 22:34:43;;;;;;;;;;;6.50;99.90;;;;;;13152370;22;19925;-85
2021/03/24 22:39:44;;;;;;;;;;;6.50;99.90;;;;;;13151990;22;19922;-85
2021/03/24 22:44:45;;;;;;;;;;;6.40;99.90;;;;;;13179581;22;19918;-85
2021/03/24 22:49:53;;;;;;;;;;;6.50;99.90;;;;;;13126966;22;19945;-85
2021/03/24 22:54:58;;;;;;;;;;;6.50;99.90;;;;;;13152821;22;19918;-85
2021/03/24 22:59:59;;;;;;;;;;;7.70;99.90;;;;;;13151850;22;19918;-85
2021/03/24 23:05:01;;;;;;;;;;;6.40;99.90;;;;;;13126271;22;19964;-85
2021/03/24 23:10:05;;;;;;;;;;;6.30;99.90;;;;;;13152755;22;19922;-85
2021/03/24 23:15:10;;;;;;;;;;;6.30;99.90;;;;;;13152004;22;20251;-85
2021/03/24 23:20:12;;;;;;;;;;;6.40;99.90;;;;;;13155720;22;20403;-85
2021/03/24 23:25:15;;;;;;;;;;;6.50;99.90;;;;;;13156283;22;19918;-85
2021/03/24 23:30:17;;;;;;;;;;;6.40;99.90;;;;;;13155307;22;20391;-85
2021/03/24 23:35:19;;;;;;;;;;;6.40;99.90;;;;;;13155189;22;19924;-85
2021/03/24 23:40:21;;;;;;;;;;;6.50;99.90;;;;;;13183872;22;19982;-85
2021/03/24 23:45:23;;;;;;;;;;;6.50;99.90;;;;;;13155457;22;20329;-85
2021/03/24 23:50:27;;;;;;;;;;;6.50;99.90;;;;;;13129689;22;20290;-85
2021/03/24 23:55:32;;;;;;;;;;;6.50;99.90;;;;;;13155130;22;19926;-85
